createdAt,value
2023-04-03T00:01:19.771Z,6.50
2023-04-03T00:04:08.012Z,6.53
2023-04-03T00:06:42.221Z,6.54
2023-04-03T00:09:11.706Z,6.55
2023-04-03T00:11:39.994Z,6.57
2023-04-03T00:14:08.380Z,6.58
2023-04-03T00:16:37.315Z,6.59
2023-04-03T00:19:07.597Z,6.62
2023-04-03T00:21:35.986Z,6.64
2023-04-03T00:24:05.121Z,6.65
2023-04-03T00:26:39.725Z,6.66
2023-04-03T00:29:08.156Z,6.67
2023-04-03T00:31:36.435Z,6.68
2023-04-03T00:34:04.890Z,6.68
2023-04-03T00:36:33.941Z,6.69
2023-04-03T00:39:02.427Z,6.69
2023-04-03T00:41:30.784Z,6.69
2023-04-03T00:43:59.017Z,6.69
2023-04-03T00:46:27.639Z,6.69
2023-04-03T00:48:56.252Z,6.69
2023-04-03T00:51:25.061Z,6.69
2023-04-03T00:54:00.952Z,6.69
2023-04-03T00:56:29.733Z,6.70
2023-04-03T00:58:57.920Z,6.70
2023-04-03T01:01:27.039Z,6.69
2023-04-03T01:03:56.007Z,6.70
2023-04-03T01:06:27.229Z,6.69
2023-04-03T01:08:55.589Z,6.70
2023-04-03T01:11:24.271Z,6.70
2023-04-03T01:13:52.555Z,6.71
2023-04-03T01:16:20.991Z,6.71
2023-04-03T01:18:49.249Z,6.71
2023-04-03T01:21:26.811Z,6.72
2023-04-03T01:24:01.194Z,6.72
2023-04-03T01:26:29.649Z,6.75
2023-04-03T01:28:59.702Z,6.76
2023-04-03T01:31:29.301Z,6.76
2023-04-03T01:33:57.981Z,6.77
2023-04-03T01:36:27.354Z,6.79
2023-04-03T01:38:56.169Z,6.81
2023-04-03T01:41:25.000Z,6.83
2023-04-03T01:43:53.890Z,6.82
2023-04-03T01:46:22.464Z,6.83
2023-04-03T01:48:50.926Z,6.83
2023-04-03T01:51:19.430Z,6.84
2023-04-03T01:53:47.781Z,6.85
2023-04-03T01:56:16.028Z,6.84
2023-04-03T01:58:44.775Z,6.84
2023-04-03T02:01:17.641Z,6.85
2023-04-03T02:03:48.028Z,6.84
2023-04-03T02:06:16.321Z,6.84
2023-04-03T02:08:47.015Z,6.84
2023-04-03T02:11:16.522Z,6.85
2023-04-03T02:13:45.584Z,6.85
2023-04-03T02:16:14.651Z,6.84
2023-04-03T02:18:43.698Z,6.83
2023-04-03T02:21:16.429Z,6.82
2023-04-03T02:23:44.990Z,6.80
2023-04-03T02:26:14.518Z,6.80
2023-04-03T02:28:43.679Z,6.79
2023-04-03T02:31:11.983Z,6.78
2023-04-03T02:33:41.463Z,6.78
2023-04-03T02:36:11.264Z,6.79
2023-04-03T02:38:40.934Z,6.77
2023-04-03T02:41:09.981Z,6.78
2023-04-03T02:43:38.872Z,6.79
2023-04-03T02:46:07.964Z,6.79
2023-04-03T02:48:37.692Z,6.79
2023-04-03T02:51:06.112Z,6.80
2023-04-03T02:53:35.966Z,6.81
2023-04-03T02:56:11.655Z,6.82
2023-04-03T02:58:40.028Z,6.83
2023-04-03T03:01:09.282Z,6.83
2023-04-03T03:03:38.449Z,6.85
2023-04-03T03:06:10.515Z,6.85
2023-04-03T03:08:39.455Z,6.85
2023-04-03T03:11:08.207Z,6.87
2023-04-03T03:13:36.401Z,6.87
2023-04-03T03:16:06.664Z,6.88
2023-04-03T03:18:35.135Z,6.88
2023-04-03T03:21:08.193Z,6.89
2023-04-03T03:23:37.553Z,6.90
2023-04-03T03:26:06.821Z,6.92
2023-04-03T03:28:39.350Z,6.93
2023-04-03T03:31:08.023Z,6.95
2023-04-03T03:33:36.943Z,6.96
2023-04-03T03:36:05.422Z,6.97
2023-04-03T03:38:33.939Z,6.98
2023-04-03T03:41:03.285Z,6.98
2023-04-03T03:43:33.008Z,6.98
2023-04-03T03:46:01.283Z,6.98
2023-04-03T03:48:29.742Z,7.00
2023-04-03T03:50:58.443Z,7.01
2023-04-03T03:53:29.824Z,7.04
2023-04-03T03:56:01.397Z,7.06
2023-04-03T03:58:30.711Z,7.08
2023-04-03T04:01:05.037Z,7.08
2023-04-03T04:03:34.958Z,7.09
2023-04-03T04:06:03.739Z,7.10
2023-04-03T04:08:34.630Z,7.13
2023-04-03T04:11:03.979Z,7.14
2023-04-03T04:13:32.476Z,7.17
2023-04-03T04:16:01.810Z,7.20
2023-04-03T04:18:31.311Z,7.21
2023-04-03T04:20:59.973Z,7.24
2023-04-03T04:23:29.198Z,7.26
2023-04-03T04:25:58.789Z,7.28
2023-04-03T04:28:29.469Z,7.30
2023-04-03T04:30:58.689Z,7.32
2023-04-03T04:33:27.879Z,7.33
2023-04-03T04:35:56.673Z,7.36
2023-04-03T04:38:25.574Z,7.37
2023-04-03T04:40:54.450Z,7.38
2023-04-03T04:43:23.008Z,7.40
2023-04-03T04:46:06.440Z,7.42
2023-04-03T04:48:37.921Z,7.44
2023-04-03T04:51:06.724Z,7.47
2023-04-03T04:53:35.375Z,7.47
2023-04-03T04:56:03.794Z,7.49
2023-04-03T04:58:35.024Z,7.50
2023-04-03T05:01:04.364Z,7.52
2023-04-03T05:03:33.433Z,7.54
2023-04-03T05:06:01.659Z,7.55
2023-04-03T05:08:32.186Z,7.57
2023-04-03T05:11:06.670Z,7.57
2023-04-03T05:13:36.335Z,7.59
2023-04-03T05:16:05.112Z,7.60
2023-04-03T05:18:33.981Z,7.59
2023-04-03T05:21:04.338Z,7.56
2023-04-03T05:23:32.910Z,7.53
2023-04-03T05:26:02.997Z,7.53
2023-04-03T05:28:32.945Z,7.53
2023-04-03T05:31:01.452Z,7.51
2023-04-03T05:33:34.239Z,7.50
2023-04-03T05:36:03.737Z,7.49
2023-04-03T05:38:33.306Z,7.48
2023-04-03T05:41:02.459Z,7.46
2023-04-03T05:43:30.984Z,7.44
2023-04-03T05:45:59.866Z,7.42
2023-04-03T05:48:28.457Z,7.43
2023-04-03T05:50:57.232Z,7.44
2023-04-03T05:53:28.601Z,7.43
2023-04-03T05:56:02.497Z,7.43
2023-04-03T05:58:32.807Z,7.43
2023-04-03T06:01:01.158Z,7.43
2023-04-03T06:03:39.586Z,7.43
2023-04-03T06:06:12.371Z,7.45
2023-04-03T06:08:40.568Z,7.46
2023-04-03T06:11:10.823Z,7.46
2023-04-03T06:13:39.412Z,7.46
2023-04-03T06:16:07.706Z,7.45
2023-04-03T06:18:36.250Z,7.43
2023-04-03T06:21:05.942Z,7.42
2023-04-03T06:23:35.949Z,7.41
2023-04-03T06:26:04.324Z,7.38
2023-04-03T06:28:33.046Z,7.37
2023-04-03T06:31:01.570Z,7.38
2023-04-03T06:33:31.378Z,7.39
2023-04-03T06:35:59.770Z,7.42
2023-04-03T06:38:28.201Z,7.44
2023-04-03T06:40:57.239Z,7.45
2023-04-03T06:43:25.892Z,7.47
2023-04-03T06:45:54.187Z,7.50
2023-04-03T06:48:22.828Z,7.52
2023-04-03T06:50:51.322Z,7.55
2023-04-03T06:53:20.036Z,7.58
2023-04-03T06:55:48.667Z,7.59
2023-04-03T06:58:19.488Z,7.61
2023-04-03T07:00:48.944Z,7.64
2023-04-03T07:03:20.252Z,7.68
2023-04-03T07:05:48.928Z,7.70
2023-04-03T07:08:17.654Z,7.72
2023-04-03T07:10:46.373Z,7.76
2023-04-03T07:13:15.969Z,7.81
2023-04-03T07:15:44.344Z,7.87
2023-04-03T07:18:12.816Z,7.90
2023-04-03T07:20:42.078Z,7.94
2023-04-03T07:23:11.682Z,7.94
2023-04-03T07:25:43.969Z,7.91
2023-04-03T07:28:13.016Z,7.89
2023-04-03T07:30:46.284Z,7.90
2023-04-03T07:33:15.127Z,7.90
2023-04-03T07:35:43.557Z,7.92
2023-04-03T07:38:12.242Z,7.92
2023-04-03T07:40:40.995Z,7.94
2023-04-03T07:43:09.684Z,7.95
2023-04-03T07:45:38.163Z,7.96
2023-04-03T07:48:08.281Z,7.96
2023-04-03T07:50:37.423Z,7.94
2023-04-03T07:53:07.434Z,7.94
2023-04-03T07:55:38.614Z,7.96
2023-04-03T07:58:12.132Z,7.97
2023-04-03T08:00:41.219Z,7.98
2023-04-03T08:03:12.435Z,8.01
2023-04-03T08:05:41.874Z,8.05
2023-04-03T08:08:11.008Z,8.10
2023-04-03T08:10:40.107Z,8.12
2023-04-03T08:13:08.364Z,8.13
2023-04-03T08:15:37.147Z,8.17
2023-04-03T08:18:05.679Z,8.18
2023-04-03T08:20:34.010Z,8.15
2023-04-03T08:23:02.217Z,8.14
2023-04-03T08:25:31.149Z,8.14
2023-04-03T08:27:59.435Z,8.18
2023-04-03T08:30:27.649Z,8.20
2023-04-03T08:32:57.258Z,8.25
2023-04-03T08:35:26.129Z,8.31
2023-04-03T08:37:54.514Z,8.38
2023-04-03T08:40:22.925Z,8.43
2023-04-03T08:43:06.229Z,8.49
2023-04-03T08:45:38.992Z,8.59
2023-04-03T08:48:16.766Z,8.70
2023-04-03T08:50:46.225Z,8.82
2023-04-03T08:53:22.586Z,8.91
2023-04-03T08:55:51.306Z,8.97
2023-04-03T08:58:20.209Z,9.01
2023-04-03T09:00:52.079Z,9.02
2023-04-03T09:03:21.977Z,8.98
2023-04-03T09:06:09.406Z,8.91
2023-04-03T09:08:58.426Z,8.84
2023-04-03T09:11:47.806Z,8.82
2023-04-03T09:14:37.602Z,8.81
2023-04-03T09:17:13.102Z,8.80
2023-04-03T09:19:43.118Z,8.76
2023-04-03T09:22:27.343Z,8.77
2023-04-03T09:25:00.106Z,8.86
2023-04-03T09:27:28.521Z,9.04
2023-04-03T09:29:57.452Z,9.23
2023-04-03T09:32:28.906Z,9.34
2023-04-03T09:34:59.726Z,9.36
2023-04-03T09:37:41.250Z,9.37
2023-04-03T09:40:27.966Z,9.33
2023-04-03T09:43:01.569Z,9.26
2023-04-03T09:45:31.700Z,9.18
2023-04-03T09:48:15.463Z,9.09
2023-04-03T09:50:50.929Z,9.02
2023-04-03T09:53:33.453Z,8.98
2023-04-03T09:56:01.738Z,8.95
2023-04-03T09:58:42.810Z,8.91
2023-04-03T10:01:31.222Z,8.86
2023-04-03T10:04:07.941Z,8.84
2023-04-03T10:06:37.735Z,8.81
2023-04-03T10:09:08.028Z,8.78
2023-04-03T10:11:39.697Z,8.76
2023-04-03T10:14:12.433Z,8.72
2023-04-03T10:16:43.398Z,8.68
2023-04-03T10:19:27.359Z,8.66
2023-04-03T10:21:56.970Z,8.64
2023-04-03T10:24:37.723Z,8.57
2023-04-03T10:27:13.303Z,8.47
2023-04-03T10:30:04.873Z,8.38
2023-04-03T10:32:40.324Z,8.33
2023-04-03T10:35:13.717Z,8.29
2023-04-03T10:37:42.517Z,8.26
2023-04-03T10:40:22.849Z,8.26
2023-04-03T10:42:51.161Z,8.28
2023-04-03T10:45:22.169Z,8.32
2023-04-03T10:47:56.908Z,8.34
2023-04-03T10:50:37.581Z,8.37
2023-04-03T10:53:06.379Z,8.42
2023-04-03T10:55:55.346Z,8.44
2023-04-03T10:58:35.789Z,8.48
2023-04-03T11:01:06.702Z,8.54
2023-04-03T11:03:43.736Z,8.59
2023-04-03T11:06:13.029Z,8.64
2023-04-03T11:08:52.776Z,8.70
2023-04-03T11:11:22.809Z,8.72
2023-04-03T11:13:54.233Z,8.74
2023-04-03T11:16:27.314Z,8.73
2023-04-03T11:19:14.865Z,8.72
2023-04-03T11:21:44.433Z,8.73
2023-04-03T11:24:33.349Z,8.75
2023-04-03T11:27:06.442Z,8.79
2023-04-03T11:29:37.754Z,8.88
2023-04-03T11:32:18.856Z,9.00
2023-04-03T11:34:47.554Z,9.09
2023-04-03T11:37:23.300Z,9.17
2023-04-03T11:40:02.120Z,9.23
2023-04-03T11:42:35.588Z,9.23
2023-04-03T11:45:24.583Z,9.23
2023-04-03T11:47:54.051Z,9.25
2023-04-03T11:50:35.808Z,9.31
2023-04-03T11:53:24.416Z,9.47
2023-04-03T11:55:56.873Z,9.72
2023-04-03T11:58:30.110Z,9.93
2023-04-03T12:00:58.396Z,10.17
2023-04-03T12:03:32.753Z,10.38
2023-04-03T12:06:16.656Z,10.50
2023-04-03T12:08:46.857Z,10.52
2023-04-03T12:11:17.734Z,10.45
2023-04-03T12:13:55.249Z,10.37
2023-04-03T12:16:26.708Z,10.26
2023-04-03T12:18:55.340Z,10.19
2023-04-03T12:21:32.882Z,10.16
2023-04-03T12:24:05.208Z,10.13
2023-04-03T12:26:47.643Z,10.11
2023-04-03T12:29:19.616Z,10.11
2023-04-03T12:32:08.688Z,10.11
2023-04-03T12:34:49.457Z,10.13
2023-04-03T12:37:17.835Z,10.16
2023-04-03T12:39:56.949Z,10.17
2023-04-03T12:42:28.410Z,10.14
2023-04-03T12:45:16.061Z,10.08
2023-04-03T12:47:45.335Z,9.95
2023-04-03T12:50:22.824Z,9.80
2023-04-03T12:52:52.917Z,9.66
2023-04-03T12:55:22.037Z,9.53
2023-04-03T12:57:50.290Z,9.39
2023-04-03T13:00:23.112Z,9.26
2023-04-03T13:03:28.107Z,9.14
2023-04-03T13:05:58.588Z,9.06
2023-04-03T13:08:27.275Z,8.98
2023-04-03T13:10:58.340Z,8.89
2023-04-03T13:13:27.486Z,8.82
2023-04-03T13:15:56.254Z,8.76
2023-04-03T13:18:32.461Z,8.74
2023-04-03T13:21:06.997Z,8.73
2023-04-03T13:23:36.204Z,8.71
2023-04-03T13:26:04.707Z,8.69
2023-04-03T13:28:33.145Z,8.65
2023-04-03T13:31:06.743Z,8.61
2023-04-03T13:33:38.967Z,8.58
2023-04-03T13:36:09.215Z,8.55
2023-04-03T13:38:37.557Z,8.55
2023-04-03T13:41:12.061Z,8.54
2023-04-03T13:43:41.902Z,8.54
2023-04-03T13:46:13.113Z,8.57
2023-04-03T13:48:42.560Z,8.61
2023-04-03T13:51:14.013Z,8.65
2023-04-03T13:53:43.671Z,8.75
2023-04-03T13:56:20.463Z,8.85
2023-04-03T13:58:59.843Z,8.94
2023-04-03T14:01:33.891Z,9.05
2023-04-03T14:04:10.969Z,9.15
2023-04-03T14:06:39.423Z,9.26
2023-04-03T14:09:07.873Z,9.32
2023-04-03T14:11:37.167Z,9.38
2023-04-03T14:14:13.495Z,9.45
2023-04-03T14:16:42.690Z,9.49
2023-04-03T14:19:21.578Z,9.53
2023-04-03T14:21:49.952Z,9.60
2023-04-03T14:24:18.147Z,9.61
2023-04-03T14:26:46.552Z,9.61
2023-04-03T14:29:15.938Z,9.60
2023-04-03T14:31:44.406Z,9.57
2023-04-03T14:34:13.504Z,9.53
2023-04-03T14:36:42.566Z,9.50
2023-04-03T14:39:17.538Z,9.48
2023-04-03T14:41:46.664Z,9.47
2023-04-03T14:44:14.883Z,9.51
2023-04-03T14:49:22.671Z,9.63
2023-04-03T14:51:51.799Z,9.67
2023-04-03T14:54:22.720Z,9.70
2023-04-03T14:56:51.005Z,9.75
2023-04-03T14:59:21.213Z,9.80
2023-04-03T15:01:49.772Z,9.83
2023-04-03T15:04:18.914Z,9.82
2023-04-03T15:06:47.593Z,9.82
2023-04-03T15:09:25.814Z,9.81
2023-04-03T15:11:54.456Z,9.80
2023-04-03T15:14:35.954Z,9.77
2023-04-03T15:17:06.344Z,9.75
2023-04-03T15:19:37.175Z,9.76
2023-04-03T15:22:05.503Z,9.76
2023-04-03T15:24:33.993Z,9.73
2023-04-03T15:27:02.288Z,9.70
2023-04-03T15:29:30.623Z,9.67
2023-04-03T15:31:58.853Z,9.61
2023-04-03T15:34:27.298Z,9.54
2023-04-03T15:37:01.216Z,9.45
2023-04-03T15:39:29.792Z,9.40
2023-04-03T15:42:00.960Z,9.38
2023-04-03T15:44:30.181Z,9.36
2023-04-03T15:46:59.014Z,9.33
2023-04-03T15:49:27.844Z,9.30
2023-04-03T15:51:56.060Z,9.25
2023-04-03T15:54:25.932Z,9.22
2023-04-03T15:56:54.315Z,9.18
2023-04-03T15:59:23.923Z,9.14
2023-04-03T16:01:52.472Z,9.11
2023-04-03T16:04:22.214Z,9.07
2023-04-03T16:06:53.379Z,9.04
2023-04-03T16:09:21.594Z,9.01
2023-04-03T16:11:49.892Z,8.99
2023-04-03T16:14:23.104Z,8.95
2023-04-03T16:16:51.490Z,8.94
2023-04-03T16:19:25.281Z,8.94
2023-04-03T16:21:55.735Z,8.93
2023-04-03T16:24:24.062Z,8.92
2023-04-03T16:26:54.621Z,8.92
2023-04-03T16:29:23.188Z,8.92
2023-04-03T16:31:55.668Z,8.91
2023-04-03T16:34:24.562Z,8.91
2023-04-03T16:36:56.362Z,8.89
2023-04-03T16:39:24.585Z,8.87
2023-04-03T16:41:52.800Z,8.85
2023-04-03T16:44:21.186Z,8.83
2023-04-03T16:46:49.432Z,8.81
2023-04-03T16:49:17.762Z,8.78
2023-04-03T16:51:46.420Z,8.77
2023-04-03T16:54:15.267Z,8.76
2023-04-03T16:56:43.984Z,8.75
2023-04-03T16:59:12.152Z,8.74
2023-04-03T17:01:40.424Z,8.72
2023-04-03T17:04:08.707Z,8.70
2023-04-03T17:06:37.990Z,8.70
2023-04-03T17:09:06.568Z,8.71
2023-04-03T17:11:37.069Z,8.70
2023-04-03T17:14:06.192Z,8.70
2023-04-03T17:16:35.215Z,8.68
2023-04-03T17:19:04.259Z,8.66
2023-04-03T17:21:32.952Z,8.65
2023-04-03T17:24:09.531Z,8.64
2023-04-03T17:26:38.862Z,8.62
2023-04-03T17:29:07.120Z,8.62
2023-04-03T17:31:35.663Z,8.61
2023-04-03T17:34:04.177Z,8.59
2023-04-03T17:36:32.976Z,8.58
2023-04-03T17:39:01.556Z,8.56
2023-04-03T17:41:29.890Z,8.55
2023-04-03T17:43:58.314Z,8.56
2023-04-03T17:46:26.866Z,8.55
2023-04-03T17:48:55.494Z,8.54
2023-04-03T17:51:24.111Z,8.52
2023-04-03T17:53:56.122Z,8.52
2023-04-03T17:56:24.804Z,8.52
2023-04-03T17:58:53.550Z,8.51
2023-04-03T18:01:22.622Z,8.50
2023-04-03T18:03:55.940Z,8.51
2023-04-03T18:06:29.539Z,8.51
2023-04-03T18:09:01.815Z,8.52
2023-04-03T18:11:30.702Z,8.51
2023-04-03T18:14:01.820Z,8.52
2023-04-03T18:16:31.350Z,8.52
2023-04-03T18:19:20.568Z,8.51
2023-04-03T18:21:49.507Z,8.51
2023-04-03T18:24:18.403Z,8.52
2023-04-03T18:26:47.755Z,8.51
2023-04-03T18:29:17.359Z,8.51
2023-04-03T18:31:46.438Z,8.47
2023-04-03T18:34:14.776Z,8.46
2023-04-03T18:36:43.016Z,8.43
2023-04-03T18:39:13.379Z,8.42
2023-04-03T18:41:41.600Z,8.40
2023-04-03T18:44:10.936Z,8.39
2023-04-03T18:46:40.021Z,8.38
2023-04-03T18:49:08.441Z,8.38
2023-04-03T18:51:41.046Z,8.36
2023-04-03T18:54:10.229Z,8.36
2023-04-03T18:56:39.063Z,8.35
2023-04-03T18:59:07.277Z,8.35
2023-04-03T19:01:35.686Z,8.36
2023-04-03T19:04:04.404Z,8.36
2023-04-03T19:06:33.062Z,8.35
2023-04-03T19:09:01.726Z,8.34
2023-04-03T19:11:31.493Z,8.35
2023-04-03T19:14:14.353Z,8.33
2023-04-03T19:16:45.208Z,8.32
2023-04-03T19:19:13.580Z,8.32
2023-04-03T19:21:42.303Z,8.32
2023-04-03T19:24:11.230Z,8.35
2023-04-03T19:26:46.250Z,8.37
2023-04-03T19:29:14.890Z,8.36
2023-04-03T19:31:43.238Z,8.35
2023-04-03T19:34:11.704Z,8.37
2023-04-03T19:36:40.213Z,8.36
2023-04-03T19:39:08.449Z,8.37
2023-04-03T19:41:37.209Z,8.38
2023-04-03T19:44:06.038Z,8.37
2023-04-03T19:46:34.995Z,8.37
2023-04-03T19:49:03.484Z,8.36
2023-04-03T19:51:33.612Z,8.35
2023-04-03T19:54:01.790Z,8.33
2023-04-03T19:56:33.841Z,8.31
2023-04-03T19:59:02.555Z,8.32
2023-04-03T20:01:31.302Z,8.30
2023-04-03T20:04:00.784Z,8.28
2023-04-03T20:06:29.275Z,8.22
2023-04-03T20:08:57.697Z,8.18
2023-04-03T20:11:31.159Z,8.14
2023-04-03T20:13:59.555Z,8.14
2023-04-03T20:16:28.239Z,8.11
2023-04-03T20:18:57.044Z,8.11
2023-04-03T20:21:32.172Z,8.11
2023-04-03T20:24:01.517Z,8.10
2023-04-03T20:26:30.388Z,8.10
2023-04-03T20:28:59.330Z,8.11
2023-04-03T20:31:28.775Z,8.13
2023-04-03T20:33:58.273Z,8.14
2023-04-03T20:36:28.688Z,8.14
2023-04-03T20:38:57.707Z,8.14
2023-04-03T20:41:26.162Z,8.14
2023-04-03T20:43:54.978Z,8.14
2023-04-03T20:46:38.396Z,8.17
2023-04-03T20:49:16.280Z,8.18
2023-04-03T20:51:44.404Z,8.19
2023-04-03T20:54:13.018Z,8.19
2023-04-03T20:56:41.366Z,8.19
2023-04-03T20:59:10.457Z,8.17
2023-04-03T21:01:39.807Z,8.15
2023-04-03T21:04:19.705Z,8.15
2023-04-03T21:07:07.033Z,8.16
2023-04-03T21:09:55.002Z,8.15
2023-04-03T21:12:42.060Z,8.15
2023-04-03T21:15:29.229Z,8.18
2023-04-03T21:18:06.944Z,8.18
2023-04-03T21:20:35.108Z,8.19
2023-04-03T21:23:03.998Z,8.18
2023-04-03T21:25:32.358Z,8.18
2023-04-03T21:28:00.552Z,8.20
2023-04-03T21:30:28.895Z,8.22
2023-04-03T21:32:57.809Z,8.20
2023-04-03T21:35:26.297Z,8.20
2023-04-03T21:37:54.643Z,8.21
2023-04-03T21:40:22.978Z,8.22
2023-04-03T21:42:54.898Z,8.22
2023-04-03T21:45:24.548Z,8.20
2023-04-03T21:47:54.118Z,8.16
2023-04-03T21:50:22.301Z,8.12
2023-04-03T21:52:53.209Z,8.09
2023-04-03T21:55:21.612Z,8.08
2023-04-03T21:57:51.685Z,8.06
2023-04-03T22:00:20.869Z,8.04
2023-04-03T22:03:10.730Z,8.01
2023-04-03T22:05:39.936Z,8.02
2023-04-03T22:08:08.680Z,8.06
2023-04-03T22:10:41.255Z,8.08
2023-04-03T22:13:09.887Z,8.11
2023-04-03T22:15:43.634Z,8.15
2023-04-03T22:18:11.913Z,8.18
2023-04-03T22:20:40.391Z,8.19
2023-04-03T22:23:08.756Z,8.20
2023-04-03T22:25:36.944Z,8.21
2023-04-03T22:28:07.208Z,8.22
2023-04-03T22:30:36.509Z,8.23
2023-04-03T22:33:04.973Z,8.25
2023-04-03T22:35:34.127Z,8.27
2023-04-03T22:38:02.710Z,8.27
2023-04-03T22:40:31.012Z,8.30
2023-04-03T22:42:59.720Z,8.30
2023-04-03T22:45:27.942Z,8.30
2023-04-03T22:47:58.976Z,8.31
2023-04-03T22:50:27.263Z,8.30
2023-04-03T22:52:56.552Z,8.29
2023-04-03T22:55:25.209Z,8.29
2023-04-03T22:57:53.333Z,8.29
2023-04-03T23:00:21.720Z,8.29
2023-04-03T23:03:13.229Z,8.27
2023-04-03T23:05:42.070Z,8.26
2023-04-03T23:08:10.396Z,8.26
2023-04-03T23:10:38.798Z,8.25
2023-04-03T23:13:07.246Z,8.25
2023-04-03T23:15:35.433Z,8.25
2023-04-03T23:18:03.650Z,8.22
2023-04-03T23:20:31.862Z,8.20
2023-04-03T23:23:00.413Z,8.18
2023-04-03T23:25:28.612Z,8.16
2023-04-03T23:27:58.025Z,8.14
2023-04-03T23:30:26.562Z,8.15
2023-04-03T23:32:55.663Z,8.14
2023-04-03T23:35:23.872Z,8.11
2023-04-03T23:37:54.274Z,8.07
2023-04-03T23:40:22.424Z,8.04
2023-04-03T23:42:51.204Z,8.01
2023-04-03T23:45:19.653Z,8.00
2023-04-03T23:47:48.184Z,7.99
2023-04-03T23:50:18.967Z,7.99
2023-04-03T23:52:47.612Z,7.97
2023-04-03T23:55:16.318Z,7.95
2023-04-03T23:57:44.494Z,7.93
